EGEC

Campbeltown Airport

Campbeltown, United Kingdom
METAR EGEC 231720Z 14024KT 9999 BKN025 04/M00 Q1017
Observed Flight Rules
Feb-23 @ 17:20 UTC (5 hours ago) Marginal Visual Flight Rules
Wind Visibility Clouds
140° at 24 knots 10,000+ meters
  • Broken at 2,500' AGL
Temperatures Readings
Current 4°C / 39°F
Dewpoint 0°C / 32°F
Humidity 75%
Altimeter 30.03" Hg
Pressure 1017 hPa
Elevation 13
METAR EGEC 231720Z 14024KT 9999 BKN025 04/M00 Q1017
Observed Flight Rules
Feb-23 @ 17:20 UTC
(5 hours ago)
MVFR
Wind Visibility
140° at 24 knots 10,000+ meters
Clouds
  • Broken at 2,500' AGL
Temperature Dewpoint
4°C / 39°F 0°C / 32°F
Humidity Altimeter Pressure
75% 30.03" Hg 1017 hPa